KJXN/JXN METAR and TAF weather

Enter ICAO airport designator
Station Type Date Time Source
KJXN METAR 2021/03/08 14:56 UTC NOAA

KJXN 081456Z 20015G27KT 10SM CLR 11/M02 A3028 RMK AO2 PK WND 20027/1451 SLP262 T01061022 58012


Station Type Date Time Source
KJXN Decoded METAR 2021/03/08 14:56 UTC NOAA

JACKSON COUNTY-REYNOLDS, MI, United States (KJXN) 42-16N 084-28W
Mar 08, 2021 - 09:56 AM EST / 2021.03.08 1456 UTC
Wind: from the SSW (200 degrees) at 17 MPH (15 KT) gusting to 31 MPH (27 KT):0
Visibility: 10 mile(s):0
Sky conditions: clear
Temperature: 51.1 F (10.6 C)
Dew Point: 28.0 F (-2.2 C)
Relative Humidity: 40%
Pressure (altimeter): 30.28 in. Hg (1025 hPa)
Pressure tendency: 0.04 inches (1.2 hPa) lower than three hours ago
ob: KJXN 081456Z 20015G27KT 10SM CLR 11/M02 A3028 RMK AO2 PK WND 20027/1451 SLP262 T01061022 58012
cycle: 15

Station Type Date Time Source
KJXN TAF 2021/03/08 12:45 UTC NOAA

TAF KJXN 081142Z 0812/0912 20010KT P6SM BKN250
FM081500 22014G28KT P6SM BKN090
FM090000 26006KT P6SM SCT090
FM090900 00000KT 2SM BR FEW003

Example: see airport list